createdAt,value
2023-04-17T00:02:25.867Z,3.00
2023-04-17T00:04:54.242Z,3.30
2023-04-17T00:07:22.924Z,4.37
2023-04-17T00:09:49.654Z,3.90
2023-04-17T00:12:16.156Z,3.20
2023-04-17T00:14:42.574Z,4.00
2023-04-17T00:17:08.955Z,4.10
2023-04-17T00:19:35.391Z,3.53
2023-04-17T00:22:01.770Z,4.27
2023-04-17T00:24:28.201Z,3.53
2023-04-17T00:26:54.588Z,3.80
2023-04-17T00:29:20.954Z,3.23
2023-04-17T00:31:47.408Z,3.50
2023-04-17T00:34:14.181Z,3.90
2023-04-17T00:36:40.589Z,3.80
2023-04-17T00:39:07.486Z,4.03
2023-04-17T00:41:33.843Z,4.13
2023-04-17T00:44:00.336Z,4.27
2023-04-17T00:46:27.118Z,5.00
2023-04-17T00:48:54.150Z,4.80
2023-04-17T00:51:20.980Z,4.27
2023-04-17T00:53:47.764Z,4.07
2023-04-17T00:56:14.559Z,4.30
2023-04-17T00:58:41.304Z,3.80
2023-04-17T01:01:08.346Z,3.60
2023-04-17T01:03:35.282Z,3.60
2023-04-17T01:06:02.876Z,3.70
2023-04-17T01:08:39.351Z,5.10
2023-04-17T01:11:05.838Z,4.70
2023-04-17T01:13:32.518Z,5.70
2023-04-17T01:15:58.899Z,4.60
2023-04-17T01:18:25.664Z,4.50
2023-04-17T01:20:52.019Z,4.30
2023-04-17T01:23:18.778Z,5.23
2023-04-17T01:25:46.311Z,4.83
2023-04-17T01:28:12.930Z,4.70
2023-04-17T01:30:39.309Z,5.00
2023-04-17T01:33:06.040Z,5.13
2023-04-17T01:35:32.428Z,5.27
2023-04-17T01:37:58.855Z,5.00
2023-04-17T01:40:25.316Z,4.30
2023-04-17T01:42:51.694Z,5.37
2023-04-17T01:45:18.177Z,4.60
2023-04-17T01:47:44.952Z,5.07
2023-04-17T01:50:12.028Z,5.10
2023-04-17T01:52:39.773Z,4.33
2023-04-17T01:55:06.841Z,4.50
2023-04-17T01:57:33.300Z,4.47
2023-04-17T01:59:59.693Z,4.63
2023-04-17T02:02:26.137Z,4.10
2023-04-17T02:04:52.630Z,4.10
2023-04-17T02:07:19.056Z,4.83
2023-04-17T02:09:45.897Z,4.43
2023-04-17T02:12:12.299Z,4.63
2023-04-17T02:14:39.362Z,5.20
2023-04-17T02:17:05.876Z,4.23
2023-04-17T02:19:32.439Z,4.63
2023-04-17T02:21:58.847Z,4.57
2023-04-17T02:24:25.774Z,4.40
2023-04-17T02:26:52.161Z,4.33
2023-04-17T02:29:19.549Z,4.20
2023-04-17T02:31:46.380Z,4.30
2023-04-17T02:34:13.221Z,4.43
2023-04-17T02:36:39.596Z,4.40
2023-04-17T02:39:05.973Z,4.60
2023-04-17T02:41:32.423Z,5.17
2023-04-17T02:44:00.976Z,5.80
2023-04-17T02:46:27.468Z,4.70
2023-04-17T02:48:53.919Z,4.60
2023-04-17T02:51:20.277Z,4.97
2023-04-17T02:53:47.111Z,4.70
2023-04-17T02:56:13.494Z,4.87
2023-04-17T02:58:39.927Z,5.00
2023-04-17T03:01:06.409Z,5.00
2023-04-17T03:03:35.626Z,5.47
2023-04-17T03:06:02.459Z,4.63
2023-04-17T03:08:31.898Z,5.33
2023-04-17T03:10:59.910Z,5.30
2023-04-17T03:13:26.287Z,6.20
2023-04-17T03:15:52.978Z,5.53
2023-04-17T03:18:19.332Z,6.00
2023-04-17T03:20:46.253Z,6.33
2023-04-17T03:23:12.633Z,6.27
2023-04-17T03:25:39.040Z,5.20
2023-04-17T03:28:05.446Z,5.47
2023-04-17T03:30:31.831Z,4.80
2023-04-17T03:32:58.250Z,5.00
2023-04-17T03:35:24.964Z,4.57
2023-04-17T03:37:51.445Z,5.87
2023-04-17T03:40:17.944Z,5.10
2023-04-17T03:42:44.369Z,5.27
2023-04-17T03:45:10.998Z,5.63
2023-04-17T03:47:37.388Z,4.37
2023-04-17T03:50:04.044Z,4.47
2023-04-17T03:52:30.446Z,7.03
2023-04-17T03:54:57.167Z,5.20
2023-04-17T03:57:23.543Z,4.93
2023-04-17T03:59:49.914Z,5.67
2023-04-17T04:02:16.425Z,4.70
2023-04-17T04:04:43.281Z,5.50
2023-04-17T04:07:09.864Z,5.70
2023-04-17T04:09:36.231Z,4.83
2023-04-17T04:12:02.938Z,5.77
2023-04-17T04:14:30.025Z,6.43
2023-04-17T04:16:56.689Z,6.30
2023-04-17T04:19:23.113Z,5.93
2023-04-17T04:21:49.658Z,6.77
2023-04-17T04:24:16.734Z,7.73
2023-04-17T04:26:43.220Z,8.40
2023-04-17T04:29:11.699Z,7.27
2023-04-17T04:31:38.579Z,7.67
2023-04-17T04:34:06.035Z,9.13
2023-04-17T04:36:36.043Z,8.00
2023-04-17T04:39:05.634Z,7.90
2023-04-17T04:41:33.931Z,7.57
2023-04-17T04:44:01.177Z,7.83
2023-04-17T04:46:28.277Z,8.80
2023-04-17T04:48:54.667Z,7.37
2023-04-17T04:51:21.074Z,6.57
2023-04-17T04:53:47.489Z,8.47
2023-04-17T04:56:14.192Z,8.20
2023-04-17T04:58:40.797Z,9.17
2023-04-17T05:01:07.724Z,8.77
2023-04-17T05:03:34.212Z,8.93
2023-04-17T05:06:00.802Z,8.70
2023-04-17T05:08:27.177Z,8.20
2023-04-17T05:10:53.564Z,9.27
2023-04-17T05:13:19.922Z,9.13
2023-04-17T05:15:46.326Z,8.93
2023-04-17T05:18:12.745Z,8.10
2023-04-17T05:20:39.557Z,8.00
2023-04-17T05:23:06.061Z,7.63
2023-04-17T05:25:32.834Z,8.37
2023-04-17T05:27:59.246Z,7.90
2023-04-17T05:30:25.699Z,8.23
2023-04-17T05:32:53.871Z,8.17
2023-04-17T05:35:21.080Z,9.23
2023-04-17T05:37:47.526Z,11.73
2023-04-17T05:40:14.086Z,10.73
2023-04-17T05:42:40.806Z,11.23
2023-04-17T05:45:07.704Z,12.50
2023-04-17T05:47:34.192Z,10.23
2023-04-17T05:50:00.738Z,10.33
2023-04-17T05:52:30.380Z,10.03
2023-04-17T05:54:56.805Z,10.30
2023-04-17T05:57:23.334Z,8.60
2023-04-17T05:59:49.736Z,9.83
2023-04-17T06:02:16.849Z,9.00
2023-04-17T06:04:44.496Z,10.23
2023-04-17T06:07:11.738Z,9.07
2023-04-17T06:09:38.790Z,9.23
2023-04-17T06:12:05.470Z,9.77
2023-04-17T06:14:32.046Z,9.17
2023-04-17T06:16:58.576Z,9.37
2023-04-17T06:19:24.997Z,8.87
2023-04-17T06:21:51.458Z,8.60
2023-04-17T06:24:18.984Z,8.60
2023-04-17T06:26:45.429Z,9.67
2023-04-17T06:29:12.615Z,8.93
2023-04-17T06:31:39.354Z,8.10
2023-04-17T06:34:05.967Z,8.93
2023-04-17T06:36:33.272Z,9.60
2023-04-17T06:38:59.632Z,9.00
2023-04-17T06:41:26.022Z,8.50
2023-04-17T06:43:52.388Z,9.53
2023-04-17T06:46:18.871Z,7.70
2023-04-17T06:48:45.312Z,9.37
2023-04-17T06:51:11.703Z,9.13
2023-04-17T06:53:38.113Z,9.00
2023-04-17T06:56:04.939Z,8.00
2023-04-17T06:58:31.509Z,7.67
2023-04-17T07:00:57.869Z,7.10
2023-04-17T07:03:24.471Z,7.50
2023-04-17T07:05:51.049Z,6.93
2023-04-17T07:08:19.378Z,7.93
2023-04-17T07:10:45.802Z,7.20
2023-04-17T07:13:12.374Z,7.30
2023-04-17T07:15:38.794Z,8.30
2023-04-17T07:18:05.384Z,7.97
2023-04-17T07:20:31.771Z,8.40
2023-04-17T07:22:58.488Z,8.10
2023-04-17T07:25:25.037Z,7.47
2023-04-17T07:27:51.410Z,7.33
2023-04-17T07:30:17.765Z,7.97
2023-04-17T07:32:44.194Z,7.23
2023-04-17T07:35:10.631Z,9.10
2023-04-17T07:37:37.191Z,8.10
2023-04-17T07:40:05.190Z,8.40
2023-04-17T07:42:31.943Z,7.83
2023-04-17T07:44:58.331Z,7.27
2023-04-17T07:47:25.088Z,7.20
2023-04-17T07:49:51.551Z,9.07
2023-04-17T07:52:18.104Z,8.33
2023-04-17T07:54:44.888Z,8.50
2023-04-17T07:57:11.329Z,9.23
2023-04-17T07:59:37.709Z,8.83
2023-04-17T08:02:04.218Z,8.67
2023-04-17T08:04:30.879Z,8.83
2023-04-17T08:06:57.521Z,8.80
2023-04-17T08:09:24.137Z,9.10
2023-04-17T08:11:57.189Z,9.13
2023-04-17T08:14:25.024Z,8.90
2023-04-17T08:16:51.676Z,8.80
2023-04-17T08:19:18.490Z,9.13
2023-04-17T08:21:47.450Z,9.07
2023-04-17T08:24:14.226Z,8.30
2023-04-17T08:26:40.694Z,8.07
2023-04-17T08:29:07.398Z,8.17
2023-04-17T08:31:36.783Z,7.83
2023-04-17T08:34:13.773Z,8.10
2023-04-17T08:36:41.215Z,7.60
2023-04-17T08:39:09.859Z,7.97
2023-04-17T08:41:48.967Z,7.93
2023-04-17T08:44:20.560Z,7.93
2023-04-17T08:46:47.574Z,7.97
2023-04-17T08:49:14.818Z,7.60
2023-04-17T08:51:42.136Z,7.70
2023-04-17T08:54:08.597Z,7.83
2023-04-17T08:56:35.225Z,7.20
2023-04-17T08:59:01.665Z,6.50
2023-04-17T09:01:29.778Z,6.83
2023-04-17T09:03:57.366Z,6.10
2023-04-17T09:06:24.036Z,6.70
2023-04-17T09:08:59.475Z,7.50
2023-04-17T09:11:26.653Z,6.47
2023-04-17T09:13:54.299Z,5.97
2023-04-17T09:16:21.090Z,6.20
2023-04-17T09:18:48.690Z,5.90
2023-04-17T09:21:18.635Z,6.20
2023-04-17T09:23:54.320Z,5.90
2023-04-17T09:26:25.715Z,5.33
2023-04-17T09:29:11.086Z,5.60
2023-04-17T09:31:40.423Z,5.20
2023-04-17T09:34:08.884Z,5.73
2023-04-17T09:36:38.139Z,5.80
2023-04-17T09:39:16.790Z,5.20
2023-04-17T09:41:43.360Z,5.87
2023-04-17T09:44:10.082Z,5.20
2023-04-17T09:46:42.938Z,5.23
2023-04-17T09:49:15.580Z,4.90
2023-04-17T09:51:42.335Z,4.93
2023-04-17T09:54:11.349Z,4.87
2023-04-17T09:56:38.940Z,4.80
2023-04-17T09:59:06.790Z,4.43
2023-04-17T10:01:35.343Z,4.60
2023-04-17T10:04:03.520Z,4.40
2023-04-17T10:06:34.604Z,5.00
2023-04-17T10:09:01.295Z,4.13
2023-04-17T10:11:32.016Z,4.00
2023-04-17T10:14:11.169Z,4.43
2023-04-17T10:16:39.673Z,4.37
2023-04-17T10:19:23.978Z,3.77
2023-04-17T10:22:15.223Z,3.60
2023-04-17T10:24:52.340Z,4.13
2023-04-17T10:27:24.779Z,4.13
2023-04-17T10:29:57.424Z,4.20
2023-04-17T10:32:31.434Z,3.83
2023-04-17T10:34:59.509Z,4.17
2023-04-17T10:37:50.792Z,3.73
2023-04-17T10:40:29.859Z,4.23
2023-04-17T10:43:19.719Z,4.07
2023-04-17T10:46:04.026Z,4.07
2023-04-17T10:48:40.786Z,4.07
2023-04-17T10:51:30.269Z,4.10
2023-04-17T10:53:58.501Z,4.10
2023-04-17T10:56:26.376Z,3.70
2023-04-17T10:59:00.779Z,3.60
2023-04-17T11:01:38.149Z,3.50
2023-04-17T11:04:05.043Z,3.17
2023-04-17T11:06:33.051Z,3.33
2023-04-17T11:09:00.387Z,3.20
2023-04-17T11:11:40.512Z,4.20
2023-04-17T11:14:14.707Z,3.70
2023-04-17T11:16:42.793Z,3.10
2023-04-17T11:19:11.192Z,3.37
2023-04-17T11:21:45.286Z,2.87
2023-04-17T11:24:12.435Z,3.00
2023-04-17T11:26:46.574Z,3.10
